Decoded Metar for OIIE (ABYEK in IRAN) (IATA:N/A) | Meteo·Mobile Aviation Weather
aviador You're here:

OIIE Decoded Metar

ABYEK in IRAN
Report Time2018-11-14 11:00:00
UTC Time2018-11-14 11:18:41
Flight Rules vfr VFR
Wind040° at 10 kt
W.Decomp.*RWY 11: 2.8 kt HW 9.6 kt LCW
W.Rank040° ranks 23
Current wind is above 040° avg. (6.3)
Visibility9999 m
Phenomena:Light Rain
Clouds:Few 025 Hf
Scattered 035 Hf
Broken 090 Hf
Expected CloudBase > 1,600 ft AGL from Temp-Dew spread
Ceiling9,000 ft
Temp11°C (ISA +3)
Dew Point07°C (77% RH)
AAT6.7°C
QNH1020 hPa
Density Alt3,517 ft
Elevation3,304 ft
Report Wrong Elevation
Raw Report
OIIE 141100Z 04010KT 9999 -RA FEW025 SCT035 BKN090 11/07 Q1020
NOSIG=

Extra information for OIIE:More info

Metar Taf Metar & Taf Last 4 Metars F.Rules Stats Wind Profile Meteogram Temp Stats Airport Information Weather charts Add Link Nearby VenuesMetar ALERT Operation Metar Decoded Social comments